sensor_id;sensor_type;location;lat;lon;timestamp;temperature;humidity
9371;DHT22;4725;48.384;8.984;2023-07-13T00:00:09;16.10;99.90
9371;DHT22;4725;48.384;8.984;2023-07-13T00:02:36;16.20;99.90
9371;DHT22;4725;48.384;8.984;2023-07-13T00:05:05;16.20;99.90
9371;DHT22;4725;48.384;8.984;2023-07-13T00:10:00;16.20;99.90
9371;DHT22;4725;48.384;8.984;2023-07-13T00:12:30;16.10;99.90
9371;DHT22;4725;48.384;8.984;2023-07-13T00:14:58;16.20;99.90
9371;DHT22;4725;48.384;8.984;2023-07-13T00:17:26;16.10;99.90
9371;DHT22;4725;48.384;8.984;2023-07-13T00:19:53;16.10;99.90
9371;DHT22;4725;48.384;8.984;2023-07-13T00:22:22;16.20;99.90
9371;DHT22;4725;48.384;8.984;2023-07-13T00:24:51;16.20;99.90
9371;DHT22;4725;48.384;8.984;2023-07-13T00:29:46;16.30;99.90
9371;DHT22;4725;48.384;8.984;2023-07-13T00:32:12;16.30;99.90
9371;DHT22;4725;48.384;8.984;2023-07-13T00:34:39;16.30;99.90
9371;DHT22;4725;48.384;8.984;2023-07-13T00:37:06;16.20;99.90
9371;DHT22;4725;48.384;8.984;2023-07-13T00:39:35;16.20;99.90
9371;DHT22;4725;48.384;8.984;2023-07-13T00:42:03;16.00;99.90
9371;DHT22;4725;48.384;8.984;2023-07-13T00:44:30;16.20;99.90
9371;DHT22;4725;48.384;8.984;2023-07-13T00:46:57;16.00;99.90
9371;DHT22;4725;48.384;8.984;2023-07-13T00:49:27;16.00;99.90
9371;DHT22;4725;48.384;8.984;2023-07-13T00:51:55;16.00;99.90
9371;DHT22;4725;48.384;8.984;2023-07-13T00:54:26;16.00;99.90
9371;DHT22;4725;48.384;8.984;2023-07-13T00:56:58;15.90;99.90
9371;DHT22;4725;48.384;8.984;2023-07-13T00:59:26;16.00;99.90
9371;DHT22;4725;48.384;8.984;2023-07-13T01:01:53;15.90;99.90
9371;DHT22;4725;48.384;8.984;2023-07-13T01:04:22;15.70;99.90
9371;DHT22;4725;48.384;8.984;2023-07-13T01:06:50;15.60;99.90
9371;DHT22;4725;48.384;8.984;2023-07-13T01:09:17;15.60;99.90
9371;DHT22;4725;48.384;8.984;2023-07-13T01:11:44;15.50;99.90
9371;DHT22;4725;48.384;8.984;2023-07-13T01:14:13;15.40;99.90
9371;DHT22;4725;48.384;8.984;2023-07-13T01:16:42;15.30;99.90
9371;DHT22;4725;48.384;8.984;2023-07-13T01:19:15;15.20;99.90
9371;DHT22;4725;48.384;8.984;2023-07-13T01:21:50;15.20;99.90
9371;DHT22;4725;48.384;8.984;2023-07-13T01:24:17;15.20;99.90
9371;DHT22;4725;48.384;8.984;2023-07-13T01:26:44;15.30;99.90
9371;DHT22;4725;48.384;8.984;2023-07-13T01:29:10;15.40;99.90
9371;DHT22;4725;48.384;8.984;2023-07-13T01:31:37;15.40;99.90
9371;DHT22;4725;48.384;8.984;2023-07-13T01:34:04;15.40;99.90
9371;DHT22;4725;48.384;8.984;2023-07-13T01:39:00;15.40;99.90
9371;DHT22;4725;48.384;8.984;2023-07-13T01:41:27;15.40;99.90
9371;DHT22;4725;48.384;8.984;2023-07-13T01:43:54;15.40;99.90
9371;DHT22;4725;48.384;8.984;2023-07-13T01:48:48;15.20;99.90
9371;DHT22;4725;48.384;8.984;2023-07-13T01:51:15;15.10;99.90
9371;DHT22;4725;48.384;8.984;2023-07-13T01:56:11;15.10;99.90
9371;DHT22;4725;48.384;8.984;2023-07-13T01:58:38;14.90;99.90
9371;DHT22;4725;48.384;8.984;2023-07-13T02:01:05;14.90;99.90
9371;DHT22;4725;48.384;8.984;2023-07-13T02:03:31;14.90;99.90
9371;DHT22;4725;48.384;8.984;2023-07-13T02:05:58;14.90;99.90
9371;DHT22;4725;48.384;8.984;2023-07-13T02:08:25;14.90;99.90
9371;DHT22;4725;48.384;8.984;2023-07-13T02:14:15;14.90;99.90
9371;DHT22;4725;48.384;8.984;2023-07-13T02:16:42;14.90;99.90
9371;DHT22;4725;48.384;8.984;2023-07-13T02:21:36;14.50;99.90
9371;DHT22;4725;48.384;8.984;2023-07-13T02:24:04;14.50;99.90
9371;DHT22;4725;48.384;8.984;2023-07-13T02:26:30;14.30;99.90
9371;DHT22;4725;48.384;8.984;2023-07-13T02:28:57;14.30;99.90
9371;DHT22;4725;48.384;8.984;2023-07-13T02:31:26;14.30;99.90
9371;DHT22;4725;48.384;8.984;2023-07-13T02:33:52;14.20;99.90
9371;DHT22;4725;48.384;8.984;2023-07-13T02:36:19;14.20;99.90
9371;DHT22;4725;48.384;8.984;2023-07-13T02:38:47;14.10;99.90
9371;DHT22;4725;48.384;8.984;2023-07-13T02:43:43;14.20;99.90
9371;DHT22;4725;48.384;8.984;2023-07-13T02:46:09;14.20;99.90
9371;DHT22;4725;48.384;8.984;2023-07-13T02:48:38;14.30;99.90
9371;DHT22;4725;48.384;8.984;2023-07-13T02:51:06;14.40;99.90
9371;DHT22;4725;48.384;8.984;2023-07-13T02:53:33;14.40;99.90
9371;DHT22;4725;48.384;8.984;2023-07-13T02:56:01;14.60;99.90
9371;DHT22;4725;48.384;8.984;2023-07-13T03:05:58;14.20;99.90
9371;DHT22;4725;48.384;8.984;2023-07-13T03:08:26;14.20;99.90
9371;DHT22;4725;48.384;8.984;2023-07-13T03:10:59;14.20;99.90
9371;DHT22;4725;48.384;8.984;2023-07-13T03:13:26;14.20;99.90
9371;DHT22;4725;48.384;8.984;2023-07-13T03:18:20;14.10;99.90
9371;DHT22;4725;48.384;8.984;2023-07-13T03:20:51;14.00;99.90
9371;DHT22;4725;48.384;8.984;2023-07-13T03:23:18;13.80;99.90
9371;DHT22;4725;48.384;8.984;2023-07-13T03:25:45;13.90;99.90
9371;DHT22;4725;48.384;8.984;2023-07-13T03:30:39;13.60;99.90
9371;DHT22;4725;48.384;8.984;2023-07-13T03:33:06;13.60;99.90
9371;DHT22;4725;48.384;8.984;2023-07-13T03:35:33;13.80;99.90
9371;DHT22;4725;48.384;8.984;2023-07-13T03:38:02;13.90;99.90
9371;DHT22;4725;48.384;8.984;2023-07-13T03:40:28;13.80;99.90
9371;DHT22;4725;48.384;8.984;2023-07-13T03:42:55;13.80;99.90
9371;DHT22;4725;48.384;8.984;2023-07-13T03:45:22;13.50;99.90
9371;DHT22;4725;48.384;8.984;2023-07-13T03:47:49;13.40;99.90
9371;DHT22;4725;48.384;8.984;2023-07-13T03:50:16;13.30;99.90
9371;DHT22;4725;48.384;8.984;2023-07-13T03:52:43;13.30;99.90
9371;DHT22;4725;48.384;8.984;2023-07-13T03:55:12;13.30;99.90
9371;DHT22;4725;48.384;8.984;2023-07-13T03:57:38;13.30;99.90
9371;DHT22;4725;48.384;8.984;2023-07-13T04:00:07;13.40;99.90
9371;DHT22;4725;48.384;8.984;2023-07-13T04:02:34;13.50;99.90
9371;DHT22;4725;48.384;8.984;2023-07-13T04:05:03;13.80;99.90
9371;DHT22;4725;48.384;8.984;2023-07-13T04:07:30;13.90;99.90
9371;DHT22;4725;48.384;8.984;2023-07-13T04:09:57;13.80;99.90
9371;DHT22;4725;48.384;8.984;2023-07-13T04:12:25;13.80;99.90
9371;DHT22;4725;48.384;8.984;2023-07-13T04:14:52;13.80;99.90
9371;DHT22;4725;48.384;8.984;2023-07-13T04:17:19;13.80;99.90
9371;DHT22;4725;48.384;8.984;2023-07-13T04:19:46;13.80;99.90
9371;DHT22;4725;48.384;8.984;2023-07-13T04:22:14;13.90;99.90
9371;DHT22;4725;48.384;8.984;2023-07-13T04:27:09;13.90;99.90
9371;DHT22;4725;48.384;8.984;2023-07-13T04:29:37;13.90;99.90
9371;DHT22;4725;48.384;8.984;2023-07-13T04:32:05;13.80;99.90
9371;DHT22;4725;48.384;8.984;2023-07-13T04:34:31;13.80;99.90
9371;DHT22;4725;48.384;8.984;2023-07-13T04:36:58;14.00;99.90
9371;DHT22;4725;48.384;8.984;2023-07-13T04:41:52;14.00;99.90
9371;DHT22;4725;48.384;8.984;2023-07-13T04:44:21;14.10;99.90
9371;DHT22;4725;48.384;8.984;2023-07-13T04:46:50;14.50;99.90
9371;DHT22;4725;48.384;8.984;2023-07-13T04:49:17;14.50;99.90
9371;DHT22;4725;48.384;8.984;2023-07-13T04:51:44;14.60;99.90
9371;DHT22;4725;48.384;8.984;2023-07-13T04:54:10;13.50;99.90
9371;DHT22;4725;48.384;8.984;2023-07-13T04:56:37;14.50;99.90
9371;DHT22;4725;48.384;8.984;2023-07-13T04:59:04;14.50;99.90
9371;DHT22;4725;48.384;8.984;2023-07-13T05:01:31;14.70;99.90
9371;DHT22;4725;48.384;8.984;2023-07-13T05:03:59;14.80;99.90
9371;DHT22;4725;48.384;8.984;2023-07-13T05:06:26;14.80;99.90
9371;DHT22;4725;48.384;8.984;2023-07-13T05:08:54;14.80;99.90
9371;DHT22;4725;48.384;8.984;2023-07-13T05:11:21;14.90;99.90
9371;DHT22;4725;48.384;8.984;2023-07-13T05:13:48;14.80;99.90
9371;DHT22;4725;48.384;8.984;2023-07-13T05:16:15;14.90;99.90
9371;DHT22;4725;48.384;8.984;2023-07-13T05:18:42;15.00;99.90
9371;DHT22;4725;48.384;8.984;2023-07-13T05:21:11;15.20;99.90
9371;DHT22;4725;48.384;8.984;2023-07-13T05:23:39;15.30;99.90
9371;DHT22;4725;48.384;8.984;2023-07-13T05:26:07;15.40;99.90
9371;DHT22;4725;48.384;8.984;2023-07-13T05:28:34;15.30;99.90
9371;DHT22;4725;48.384;8.984;2023-07-13T05:31:01;15.40;99.90
9371;DHT22;4725;48.384;8.984;2023-07-13T05:33:28;15.40;99.90
9371;DHT22;4725;48.384;8.984;2023-07-13T05:35:55;15.40;99.90
9371;DHT22;4725;48.384;8.984;2023-07-13T05:38:23;15.40;99.90
9371;DHT22;4725;48.384;8.984;2023-07-13T05:40:50;15.50;99.90
9371;DHT22;4725;48.384;8.984;2023-07-13T05:43:17;15.60;99.90
9371;DHT22;4725;48.384;8.984;2023-07-13T05:45:44;15.70;99.90
9371;DHT22;4725;48.384;8.984;2023-07-13T05:48:11;16.00;99.90
9371;DHT22;4725;48.384;8.984;2023-07-13T05:50:38;16.20;99.90
9371;DHT22;4725;48.384;8.984;2023-07-13T05:53:04;16.40;99.90
9371;DHT22;4725;48.384;8.984;2023-07-13T05:55:33;16.40;99.90
9371;DHT22;4725;48.384;8.984;2023-07-13T05:58:01;16.50;99.90
9371;DHT22;4725;48.384;8.984;2023-07-13T06:00:28;16.50;99.90
9371;DHT22;4725;48.384;8.984;2023-07-13T06:02:56;16.50;99.90
9371;DHT22;4725;48.384;8.984;2023-07-13T06:05:24;16.60;99.90
9371;DHT22;4725;48.384;8.984;2023-07-13T06:07:51;16.70;99.90
9371;DHT22;4725;48.384;8.984;2023-07-13T06:10:17;16.70;99.90
9371;DHT22;4725;48.384;8.984;2023-07-13T06:12:46;16.70;99.90
9371;DHT22;4725;48.384;8.984;2023-07-13T06:15:13;16.70;99.90
9371;DHT22;4725;48.384;8.984;2023-07-13T06:17:40;16.80;99.90
9371;DHT22;4725;48.384;8.984;2023-07-13T06:20:07;16.80;99.90
9371;DHT22;4725;48.384;8.984;2023-07-13T06:22:34;16.80;99.90
9371;DHT22;4725;48.384;8.984;2023-07-13T06:25:02;16.70;99.90
9371;DHT22;4725;48.384;8.984;2023-07-13T06:27:29;16.60;99.90
9371;DHT22;4725;48.384;8.984;2023-07-13T06:29:57;16.50;99.90
9371;DHT22;4725;48.384;8.984;2023-07-13T06:32:24;16.60;99.90
9371;DHT22;4725;48.384;8.984;2023-07-13T06:34:51;16.60;99.90
9371;DHT22;4725;48.384;8.984;2023-07-13T06:39:45;16.80;99.90
9371;DHT22;4725;48.384;8.984;2023-07-13T06:42:12;17.00;99.90
9371;DHT22;4725;48.384;8.984;2023-07-13T06:47:08;17.50;99.90
9371;DHT22;4725;48.384;8.984;2023-07-13T06:49:34;17.60;99.90
9371;DHT22;4725;48.384;8.984;2023-07-13T06:52:01;17.80;99.90
9371;DHT22;4725;48.384;8.984;2023-07-13T06:54:28;18.10;99.90
9371;DHT22;4725;48.384;8.984;2023-07-13T06:56:55;18.30;99.90
9371;DHT22;4725;48.384;8.984;2023-07-13T06:59:22;18.30;99.90
9371;DHT22;4725;48.384;8.984;2023-07-13T07:04:17;18.60;99.90
9371;DHT22;4725;48.384;8.984;2023-07-13T07:06:44;18.90;99.90
9371;DHT22;4725;48.384;8.984;2023-07-13T07:09:11;18.80;99.90
9371;DHT22;4725;48.384;8.984;2023-07-13T07:11:39;18.90;99.90
9371;DHT22;4725;48.384;8.984;2023-07-13T07:14:05;19.00;99.90
9371;DHT22;4725;48.384;8.984;2023-07-13T07:16:32;19.20;99.90
9371;DHT22;4725;48.384;8.984;2023-07-13T07:18:59;19.20;99.90
9371;DHT22;4725;48.384;8.984;2023-07-13T07:21:27;19.40;99.90
9371;DHT22;4725;48.384;8.984;2023-07-13T07:23:54;19.40;99.90
9371;DHT22;4725;48.384;8.984;2023-07-13T07:26:21;19.50;99.90
9371;DHT22;4725;48.384;8.984;2023-07-13T07:28:48;19.80;99.90
9371;DHT22;4725;48.384;8.984;2023-07-13T07:31:15;20.00;99.90
9371;DHT22;4725;48.384;8.984;2023-07-13T07:33:42;20.10;99.90
9371;DHT22;4725;48.384;8.984;2023-07-13T07:36:09;20.20;99.90
9371;DHT22;4725;48.384;8.984;2023-07-13T07:41:05;20.50;99.90
9371;DHT22;4725;48.384;8.984;2023-07-13T07:43:32;20.20;99.90
9371;DHT22;4725;48.384;8.984;2023-07-13T07:45:59;19.50;99.90
9371;DHT22;4725;48.384;8.984;2023-07-13T07:48:26;19.20;99.90
9371;DHT22;4725;48.384;8.984;2023-07-13T07:50:53;19.00;99.90
9371;DHT22;4725;48.384;8.984;2023-07-13T07:53:20;19.10;99.90
9371;DHT22;4725;48.384;8.984;2023-07-13T07:58:16;19.50;99.90
9371;DHT22;4725;48.384;8.984;2023-07-13T08:00:43;19.80;99.90
9371;DHT22;4725;48.384;8.984;2023-07-13T08:03:10;20.20;99.90
9371;DHT22;4725;48.384;8.984;2023-07-13T08:05:37;20.50;99.90
9371;DHT22;4725;48.384;8.984;2023-07-13T08:08:04;20.60;99.90
9371;DHT22;4725;48.384;8.984;2023-07-13T08:12:59;20.50;99.90
9371;DHT22;4725;48.384;8.984;2023-07-13T08:15:26;20.10;99.90
9371;DHT22;4725;48.384;8.984;2023-07-13T08:17:53;20.40;99.90
9371;DHT22;4725;48.384;8.984;2023-07-13T08:20:20;20.50;99.90
9371;DHT22;4725;48.384;8.984;2023-07-13T08:22:47;20.20;99.90
9371;DHT22;4725;48.384;8.984;2023-07-13T08:25:14;20.30;99.90
9371;DHT22;4725;48.384;8.984;2023-07-13T08:27:41;20.80;99.90
9371;DHT22;4725;48.384;8.984;2023-07-13T08:30:10;21.00;99.90
9371;DHT22;4725;48.384;8.984;2023-07-13T08:32:37;21.10;99.90
9371;DHT22;4725;48.384;8.984;2023-07-13T08:35:05;20.90;99.90
9371;DHT22;4725;48.384;8.984;2023-07-13T08:37:32;21.10;99.90
9371;DHT22;4725;48.384;8.984;2023-07-13T08:39:59;21.10;99.90
9371;DHT22;4725;48.384;8.984;2023-07-13T08:42:35;21.30;99.90
9371;DHT22;4725;48.384;8.984;2023-07-13T08:45:13;21.50;99.90
9371;DHT22;4725;48.384;8.984;2023-07-13T08:47:44;21.80;99.90
9371;DHT22;4725;48.384;8.984;2023-07-13T08:50:14;21.90;99.90
9371;DHT22;4725;48.384;8.984;2023-07-13T08:52:43;21.90;99.90
9371;DHT22;4725;48.384;8.984;2023-07-13T08:55:14;22.40;99.90
9371;DHT22;4725;48.384;8.984;2023-07-13T08:57:42;22.80;99.90
9371;DHT22;4725;48.384;8.984;2023-07-13T09:00:13;22.90;99.90
9371;DHT22;4725;48.384;8.984;2023-07-13T09:02:45;22.90;99.90
9371;DHT22;4725;48.384;8.984;2023-07-13T09:05:15;22.70;99.90
9371;DHT22;4725;48.384;8.984;2023-07-13T09:07:57;22.80;99.90
9371;DHT22;4725;48.384;8.984;2023-07-13T09:10:30;22.40;99.90
9371;DHT22;4725;48.384;8.984;2023-07-13T09:13:10;22.50;99.90
9371;DHT22;4725;48.384;8.984;2023-07-13T09:15:44;22.50;99.90
9371;DHT22;4725;48.384;8.984;2023-07-13T09:18:18;22.90;99.60
9371;DHT22;4725;48.384;8.984;2023-07-13T09:20:50;22.80;99.90
9371;DHT22;4725;48.384;8.984;2023-07-13T09:23:21;22.50;98.00
9371;DHT22;4725;48.384;8.984;2023-07-13T09:25:53;22.70;98.80
9371;DHT22;4725;48.384;8.984;2023-07-13T09:28:25;23.20;97.90
9371;DHT22;4725;48.384;8.984;2023-07-13T09:30:58;23.10;99.70
9371;DHT22;4725;48.384;8.984;2023-07-13T09:33:28;23.50;99.70
9371;DHT22;4725;48.384;8.984;2023-07-13T09:35:56;24.00;98.70
9371;DHT22;4725;48.384;8.984;2023-07-13T09:38:25;24.40;97.50
9371;DHT22;4725;48.384;8.984;2023-07-13T09:41:01;24.40;96.80
9371;DHT22;4725;48.384;8.984;2023-07-13T09:43:30;24.30;97.40
9371;DHT22;4725;48.384;8.984;2023-07-13T09:45:58;24.50;98.30
9371;DHT22;4725;48.384;8.984;2023-07-13T09:48:25;23.90;98.00
9371;DHT22;4725;48.384;8.984;2023-07-13T09:51:07;23.60;98.10
9371;DHT22;4725;48.384;8.984;2023-07-13T09:53:44;23.40;98.20
9371;DHT22;4725;48.384;8.984;2023-07-13T09:56:20;23.10;98.20
9371;DHT22;4725;48.384;8.984;2023-07-13T09:58:47;23.80;97.60
9371;DHT22;4725;48.384;8.984;2023-07-13T10:01:16;24.40;96.20
9371;DHT22;4725;48.384;8.984;2023-07-13T10:03:57;24.00;96.50
9371;DHT22;4725;48.384;8.984;2023-07-13T10:08:53;23.80;95.60
9371;DHT22;4725;48.384;8.984;2023-07-13T10:11:24;23.70;96.20
9371;DHT22;4725;48.384;8.984;2023-07-13T10:13:53;24.20;96.60
9371;DHT22;4725;48.384;8.984;2023-07-13T10:16:24;24.80;95.90
9371;DHT22;4725;48.384;8.984;2023-07-13T10:18:56;24.10;96.40
9371;DHT22;4725;48.384;8.984;2023-07-13T10:21:30;23.30;97.20
9371;DHT22;4725;48.384;8.984;2023-07-13T10:24:04;23.40;96.20
9371;DHT22;4725;48.384;8.984;2023-07-13T10:26:33;23.10;96.30
9371;DHT22;4725;48.384;8.984;2023-07-13T10:29:04;23.10;96.60
9371;DHT22;4725;48.384;8.984;2023-07-13T10:31:34;23.30;97.20
9371;DHT22;4725;48.384;8.984;2023-07-13T10:34:03;23.80;96.50
9371;DHT22;4725;48.384;8.984;2023-07-13T10:36:34;25.30;93.40
9371;DHT22;4725;48.384;8.984;2023-07-13T10:39:04;25.30;93.70
9371;DHT22;4725;48.384;8.984;2023-07-13T10:41:34;24.90;94.30
9371;DHT22;4725;48.384;8.984;2023-07-13T10:44:03;24.90;94.20
9371;DHT22;4725;48.384;8.984;2023-07-13T10:46:31;24.90;95.30
9371;DHT22;4725;48.384;8.984;2023-07-13T10:49:02;25.50;93.50
9371;DHT22;4725;48.384;8.984;2023-07-13T10:51:31;25.50;93.80
9371;DHT22;4725;48.384;8.984;2023-07-13T10:54:15;26.90;92.00
9371;DHT22;4725;48.384;8.984;2023-07-13T10:56:43;27.20;90.50
9371;DHT22;4725;48.384;8.984;2023-07-13T10:59:13;27.10;91.00
9371;DHT22;4725;48.384;8.984;2023-07-13T11:01:50;26.50;91.30
9371;DHT22;4725;48.384;8.984;2023-07-13T11:04:20;26.70;91.10
9371;DHT22;4725;48.384;8.984;2023-07-13T11:06:50;25.60;92.50
9371;DHT22;4725;48.384;8.984;2023-07-13T11:09:32;25.60;93.00
9371;DHT22;4725;48.384;8.984;2023-07-13T11:12:06;26.30;92.60
9371;DHT22;4725;48.384;8.984;2023-07-13T11:14:36;26.90;90.20
9371;DHT22;4725;48.384;8.984;2023-07-13T11:20:22;27.70;90.30
9371;DHT22;4725;48.384;8.984;2023-07-13T11:22:50;28.20;89.40
9371;DHT22;4725;48.384;8.984;2023-07-13T11:25:25;27.90;88.20
9371;DHT22;4725;48.384;8.984;2023-07-13T11:28:07;27.20;88.50
9371;DHT22;4725;48.384;8.984;2023-07-13T11:30:41;27.30;88.10
9371;DHT22;4725;48.384;8.984;2023-07-13T11:33:16;26.40;88.50
9371;DHT22;4725;48.384;8.984;2023-07-13T11:35:57;24.90;91.00
9371;DHT22;4725;48.384;8.984;2023-07-13T11:38:30;25.00;91.40
9371;DHT22;4725;48.384;8.984;2023-07-13T11:41:00;25.00;92.00
9371;DHT22;4725;48.384;8.984;2023-07-13T11:43:30;25.40;90.90
9371;DHT22;4725;48.384;8.984;2023-07-13T11:48:28;26.80;90.80
9371;DHT22;4725;48.384;8.984;2023-07-13T11:51:02;27.70;85.40
9371;DHT22;4725;48.384;8.984;2023-07-13T11:53:38;28.20;86.60
9371;DHT22;4725;48.384;8.984;2023-07-13T11:56:06;28.50;86.40
9371;DHT22;4725;48.384;8.984;2023-07-13T11:58:33;29.00;82.80
9371;DHT22;4725;48.384;8.984;2023-07-13T12:01:02;29.20;79.20
9371;DHT22;4725;48.384;8.984;2023-07-13T12:03:32;28.40;80.50
9371;DHT22;4725;48.384;8.984;2023-07-13T12:06:02;28.70;81.10
9371;DHT22;4725;48.384;8.984;2023-07-13T12:08:32;29.60;80.40
9371;DHT22;4725;48.384;8.984;2023-07-13T12:11:05;29.60;81.10
9371;DHT22;4725;48.384;8.984;2023-07-13T12:13:37;29.90;80.10
9371;DHT22;4725;48.384;8.984;2023-07-13T12:16:13;29.90;76.80
9371;DHT22;4725;48.384;8.984;2023-07-13T12:18:42;29.90;77.60
9371;DHT22;4725;48.384;8.984;2023-07-13T12:21:18;29.10;78.50
9371;DHT22;4725;48.384;8.984;2023-07-13T12:23:48;28.50;78.00
9371;DHT22;4725;48.384;8.984;2023-07-13T12:26:17;27.50;79.30
9371;DHT22;4725;48.384;8.984;2023-07-13T12:28:47;27.40;79.20
9371;DHT22;4725;48.384;8.984;2023-07-13T12:31:31;27.10;80.80
9371;DHT22;4725;48.384;8.984;2023-07-13T12:34:02;27.00;82.80
9371;DHT22;4725;48.384;8.984;2023-07-13T12:39:02;27.30;82.00
9371;DHT22;4725;48.384;8.984;2023-07-13T12:41:30;27.70;79.60
9371;DHT22;4725;48.384;8.984;2023-07-13T12:43:59;28.50;82.10
9371;DHT22;4725;48.384;8.984;2023-07-13T12:46:26;29.30;80.70
9371;DHT22;4725;48.384;8.984;2023-07-13T12:48:56;29.60;76.40
9371;DHT22;4725;48.384;8.984;2023-07-13T12:51:25;28.80;78.10
9371;DHT22;4725;48.384;8.984;2023-07-13T12:53:57;28.80;78.90
9371;DHT22;4725;48.384;8.984;2023-07-13T12:56:27;28.10;79.00
9371;DHT22;4725;48.384;8.984;2023-07-13T12:58:58;27.90;81.30
9371;DHT22;4725;48.384;8.984;2023-07-13T13:01:28;28.30;78.80
9371;DHT22;4725;48.384;8.984;2023-07-13T13:03:55;28.30;78.90
9371;DHT22;4725;48.384;8.984;2023-07-13T13:06:25;28.10;78.60
9371;DHT22;4725;48.384;8.984;2023-07-13T13:08:54;27.90;80.20
9371;DHT22;4725;48.384;8.984;2023-07-13T13:11:23;28.90;79.60
9371;DHT22;4725;48.384;8.984;2023-07-13T13:13:51;29.70;77.70
9371;DHT22;4725;48.384;8.984;2023-07-13T13:16:21;30.50;77.10
9371;DHT22;4725;48.384;8.984;2023-07-13T13:18:49;30.50;72.60
9371;DHT22;4725;48.384;8.984;2023-07-13T13:21:17;30.30;72.80
9371;DHT22;4725;48.384;8.984;2023-07-13T13:23:45;29.50;76.60
9371;DHT22;4725;48.384;8.984;2023-07-13T13:26:15;29.00;74.60
9371;DHT22;4725;48.384;8.984;2023-07-13T13:28:42;28.50;78.80
9371;DHT22;4725;48.384;8.984;2023-07-13T13:33:38;28.90;75.20
9371;DHT22;4725;48.384;8.984;2023-07-13T13:36:13;28.50;77.70
9371;DHT22;4725;48.384;8.984;2023-07-13T13:38:41;28.70;76.90
9371;DHT22;4725;48.384;8.984;2023-07-13T13:41:10;29.50;75.10
9371;DHT22;4725;48.384;8.984;2023-07-13T13:43:41;30.70;72.00
9371;DHT22;4725;48.384;8.984;2023-07-13T13:46:18;31.20;75.30
9371;DHT22;4725;48.384;8.984;2023-07-13T13:48:45;30.90;72.00
9371;DHT22;4725;48.384;8.984;2023-07-13T13:51:15;31.40;71.20
9371;DHT22;4725;48.384;8.984;2023-07-13T13:53:42;31.10;71.50
9371;DHT22;4725;48.384;8.984;2023-07-13T13:58:37;33.20;67.30
9371;DHT22;4725;48.384;8.984;2023-07-13T14:01:09;33.00;66.50
9371;DHT22;4725;48.384;8.984;2023-07-13T14:03:40;33.20;64.60
9371;DHT22;4725;48.384;8.984;2023-07-13T14:06:08;32.80;64.60
9371;DHT22;4725;48.384;8.984;2023-07-13T14:08:36;32.60;65.50
9371;DHT22;4725;48.384;8.984;2023-07-13T14:11:03;32.70;66.20
9371;DHT22;4725;48.384;8.984;2023-07-13T14:13:35;33.30;64.70
9371;DHT22;4725;48.384;8.984;2023-07-13T14:16:08;34.10;62.20
9371;DHT22;4725;48.384;8.984;2023-07-13T14:18:35;32.80;65.60
9371;DHT22;4725;48.384;8.984;2023-07-13T14:21:02;32.20;63.80
9371;DHT22;4725;48.384;8.984;2023-07-13T14:23:29;32.50;64.00
9371;DHT22;4725;48.384;8.984;2023-07-13T14:25:56;31.90;66.60
9371;DHT22;4725;48.384;8.984;2023-07-13T14:28:25;31.60;64.70
9371;DHT22;4725;48.384;8.984;2023-07-13T14:30:53;31.10;65.80
9371;DHT22;4725;48.384;8.984;2023-07-13T14:33:22;30.40;73.00
9371;DHT22;4725;48.384;8.984;2023-07-13T14:35:50;30.70;68.60
9371;DHT22;4725;48.384;8.984;2023-07-13T14:38:19;31.70;66.30
9371;DHT22;4725;48.384;8.984;2023-07-13T14:43:15;31.30;66.70
9371;DHT22;4725;48.384;8.984;2023-07-13T14:45:44;31.50;66.70
9371;DHT22;4725;48.384;8.984;2023-07-13T14:48:15;29.80;68.00
9371;DHT22;4725;48.384;8.984;2023-07-13T14:50:43;28.80;69.90
9371;DHT22;4725;48.384;8.984;2023-07-13T14:53:11;28.30;72.30
9371;DHT22;4725;48.384;8.984;2023-07-13T14:55:38;28.10;74.10
9371;DHT22;4725;48.384;8.984;2023-07-13T14:58:06;28.10;70.40
9371;DHT22;4725;48.384;8.984;2023-07-13T15:00:33;28.80;73.00
9371;DHT22;4725;48.384;8.984;2023-07-13T15:05:29;30.80;66.70
9371;DHT22;4725;48.384;8.984;2023-07-13T15:08:00;32.40;66.60
9371;DHT22;4725;48.384;8.984;2023-07-13T15:10:29;33.00;65.90
9371;DHT22;4725;48.384;8.984;2023-07-13T15:12:59;33.70;64.30
9371;DHT22;4725;48.384;8.984;2023-07-13T15:15:28;33.50;62.80
9371;DHT22;4725;48.384;8.984;2023-07-13T15:17:55;33.60;63.40
9371;DHT22;4725;48.384;8.984;2023-07-13T15:20:26;33.30;61.80
9371;DHT22;4725;48.384;8.984;2023-07-13T15:22:54;33.00;65.10
9371;DHT22;4725;48.384;8.984;2023-07-13T15:25:24;32.70;65.10
9371;DHT22;4725;48.384;8.984;2023-07-13T15:27:51;33.40;62.70
9371;DHT22;4725;48.384;8.984;2023-07-13T15:30:18;33.00;65.00
9371;DHT22;4725;48.384;8.984;2023-07-13T15:32:46;32.60;64.20
9371;DHT22;4725;48.384;8.984;2023-07-13T15:35:14;32.40;64.30
9371;DHT22;4725;48.384;8.984;2023-07-13T15:37:42;30.70;66.70
9371;DHT22;4725;48.384;8.984;2023-07-13T15:40:10;30.40;68.00
9371;DHT22;4725;48.384;8.984;2023-07-13T15:42:40;29.60;69.20
9371;DHT22;4725;48.384;8.984;2023-07-13T15:45:15;29.50;70.60
9371;DHT22;4725;48.384;8.984;2023-07-13T15:47:43;29.00;70.30
9371;DHT22;4725;48.384;8.984;2023-07-13T15:50:15;28.70;72.20
9371;DHT22;4725;48.384;8.984;2023-07-13T15:52:43;28.10;72.20
9371;DHT22;4725;48.384;8.984;2023-07-13T15:55:12;27.80;73.90
9371;DHT22;4725;48.384;8.984;2023-07-13T15:57:44;29.60;71.20
9371;DHT22;4725;48.384;8.984;2023-07-13T16:00:19;29.70;72.00
9371;DHT22;4725;48.384;8.984;2023-07-13T16:02:47;31.10;70.10
9371;DHT22;4725;48.384;8.984;2023-07-13T16:05:14;32.10;67.70
9371;DHT22;4725;48.384;8.984;2023-07-13T16:07:42;32.70;66.60
9371;DHT22;4725;48.384;8.984;2023-07-13T16:10:13;33.10;67.10
9371;DHT22;4725;48.384;8.984;2023-07-13T16:12:43;33.40;65.80
9371;DHT22;4725;48.384;8.984;2023-07-13T16:15:13;33.40;65.70
9371;DHT22;4725;48.384;8.984;2023-07-13T16:17:41;32.00;66.90
9371;DHT22;4725;48.384;8.984;2023-07-13T16:20:09;31.50;69.20
9371;DHT22;4725;48.384;8.984;2023-07-13T16:22:37;30.90;69.40
9371;DHT22;4725;48.384;8.984;2023-07-13T16:25:15;31.00;70.40
9371;DHT22;4725;48.384;8.984;2023-07-13T16:27:45;31.30;70.00
9371;DHT22;4725;48.384;8.984;2023-07-13T16:30:13;31.40;70.60
9371;DHT22;4725;48.384;8.984;2023-07-13T16:32:41;30.50;69.40
9371;DHT22;4725;48.384;8.984;2023-07-13T16:35:08;29.90;72.10
9371;DHT22;4725;48.384;8.984;2023-07-13T16:37:37;28.10;73.50
9371;DHT22;4725;48.384;8.984;2023-07-13T16:40:19;28.00;72.90
9371;DHT22;4725;48.384;8.984;2023-07-13T16:45:17;27.00;77.10
9371;DHT22;4725;48.384;8.984;2023-07-13T16:47:46;26.60;76.40
9371;DHT22;4725;48.384;8.984;2023-07-13T16:50:15;26.60;77.20
9371;DHT22;4725;48.384;8.984;2023-07-13T16:52:43;26.90;78.90
9371;DHT22;4725;48.384;8.984;2023-07-13T16:55:10;27.10;76.40
9371;DHT22;4725;48.384;8.984;2023-07-13T16:57:37;26.50;77.50
9371;DHT22;4725;48.384;8.984;2023-07-13T17:00:16;26.40;78.50
9371;DHT22;4725;48.384;8.984;2023-07-13T17:02:46;26.40;80.40
9371;DHT22;4725;48.384;8.984;2023-07-13T17:05:13;26.50;79.00
9371;DHT22;4725;48.384;8.984;2023-07-13T17:07:42;27.00;76.80
9371;DHT22;4725;48.384;8.984;2023-07-13T17:10:17;26.90;78.20
9371;DHT22;4725;48.384;8.984;2023-07-13T17:12:45;26.50;78.30
9371;DHT22;4725;48.384;8.984;2023-07-13T17:15:14;26.10;78.00
9371;DHT22;4725;48.384;8.984;2023-07-13T17:17:42;25.70;80.30
9371;DHT22;4725;48.384;8.984;2023-07-13T17:20:16;25.60;80.60
9371;DHT22;4725;48.384;8.984;2023-07-13T17:22:43;26.30;81.50
9371;DHT22;4725;48.384;8.984;2023-07-13T17:25:12;25.30;81.10
9371;DHT22;4725;48.384;8.984;2023-07-13T17:27:39;25.10;82.20